Time;durP1;ratioP1;P1;durP2;ratioP2;P2;SDS_P1;SDS_P2;PMS_P1;PMS_P2;Temp;Humidity;BMP_temperature;BMP_pressure;BME280_temperature;BME280_humidity;BME280_pressure;Samples;Min_cycle;Max_cycle;Signal;HPM_P1;HPM_P2
2022/05/09 00:02:08;;;;;;;4.13;3.07;;;;;;;11.62;66.61;97603.91;5069225;28;20205;-86
2022/05/09 00:04:37;;;;;;;4.00;2.53;;;;;;;11.48;67.14;97633.91;5088081;28;20193;-87
2022/05/09 00:07:05;;;;;;;5.47;3.20;;;;;;;10.94;68.63;97604.00;5070064;28;20197;-87
2022/05/09 00:09:32;;;;;;;4.33;3.03;;;;;;;10.63;69.25;97588.78;5068883;28;20200;-87
2022/05/09 00:12:01;;;;;;;4.07;2.37;;;;;;;10.96;69.24;97622.97;5088096;28;20251;-87
2022/05/09 00:14:31;;;;;;;6.93;2.60;;;;;;;10.84;69.02;97591.50;5086617;28;20255;-86
2022/05/09 00:16:58;;;;;;;5.83;2.63;;;;;;;10.95;68.97;97597.94;5088079;28;20197;-87
2022/05/09 00:19:28;;;;;;;3.33;2.73;;;;;;;11.44;68.16;97626.22;5087010;28;20636;-88
2022/05/09 00:21:55;;;;;;;4.90;3.27;;;;;;;11.59;67.04;97608.34;5107437;28;20190;-88
2022/05/09 00:24:23;;;;;;;5.63;3.40;;;;;;;11.72;66.34;97625.16;5108410;28;20204;-85
2022/05/09 00:26:55;;;;;;;7.53;3.30;;;;;;;11.57;66.40;97598.03;5063825;28;20214;-85
2022/05/09 00:29:25;;;;;;;4.40;3.10;;;;;;;11.77;66.29;97618.00;5098639;28;20189;-85
2022/05/09 00:31:56;;;;;;;6.37;3.50;;;;;;;11.64;65.69;97602.09;5091522;28;20869;-91
2022/05/09 00:34:25;;;;;;;5.83;3.60;;;;;;;11.81;65.45;97624.78;5091875;28;20218;-86
2022/05/09 00:36:55;;;;;;;8.27;3.00;;;;;;;11.80;64.77;97634.31;5091460;28;20258;-93
2022/05/09 00:39:24;;;;;;;3.87;3.00;;;;;;;11.38;66.32;97629.06;5093335;28;20189;-90
2022/05/09 00:41:52;;;;;;;3.80;3.10;;;;;;;10.89;66.95;97577.44;5093404;28;20234;-93
2022/05/09 00:44:27;;;;;;;6.63;3.40;;;;;;;10.95;67.38;97631.63;5093147;28;20385;-94
2022/05/09 00:46:56;;;;;;;4.37;2.80;;;;;;;10.41;68.21;97608.59;5080230;28;20216;-86
2022/05/09 00:49:30;;;;;;;5.67;3.37;;;;;;;10.26;69.31;97582.44;5089443;28;20181;-88
2022/05/09 00:52:08;;;;;;;5.97;3.20;;;;;;;10.77;68.53;97616.78;5117687;28;20196;-84
2022/05/09 00:54:58;;;;;;;3.93;2.90;;;;;;;10.95;67.79;97631.63;5111503;28;20225;-82
2022/05/09 00:57:37;;;;;;;5.60;2.90;;;;;;;11.08;67.42;97630.25;5113034;28;20181;-85
2022/05/09 01:00:17;;;;;;;5.67;2.93;;;;;;;11.06;66.59;97626.03;5095274;28;20202;-86
2022/05/09 01:02:49;;;;;;;4.93;2.77;;;;;;;10.90;67.84;97624.94;5090864;28;20299;-88
2022/05/09 01:05:16;;;;;;;5.17;3.20;;;;;;;10.67;67.76;97606.81;5073640;28;20561;-85
2022/05/09 01:07:44;;;;;;;3.63;3.17;;;;;;;10.96;67.70;97627.28;5091237;28;20190;-86
2022/05/09 01:10:15;;;;;;;4.63;2.93;;;;;;;10.76;68.57;97619.44;5073201;28;20182;-86
2022/05/09 01:12:45;;;;;;;4.70;3.10;;;;;;;10.53;68.50;97594.38;5073358;28;20185;-85
2022/05/09 01:15:16;;;;;;;4.90;2.73;;;;;;;10.48;68.83;97619.59;5072130;28;20769;-86
2022/05/09 01:17:48;;;;;;;4.60;3.63;;;;;;;10.13;69.49;97579.44;5040570;28;20246;-86
2022/05/09 01:20:16;;;;;;;6.47;3.37;;;;;;;10.37;69.68;97619.09;5055249;28;20253;-88
2022/05/09 01:22:43;;;;;;;5.27;3.13;;;;;;;9.96;70.29;97588.63;5091529;28;20254;-87
2022/05/09 01:25:14;;;;;;;6.30;3.00;;;;;;;9.72;71.46;97598.06;5090821;28;20189;-86
2022/05/09 01:27:44;;;;;;;4.77;2.90;;;;;;;9.85;71.88;97618.28;5090812;28;20184;-90
2022/05/09 01:30:35;;;;;;;4.57;3.00;;;;;;;10.04;71.06;97612.50;5091880;28;20181;-86
2022/05/09 01:33:14;;;;;;;3.87;3.00;;;;;;;10.01;70.98;97594.50;5090678;28;20197;-86
2022/05/09 01:36:05;;;;;;;4.73;3.00;;;;;;;10.14;70.78;97604.38;5091432;28;20212;-85
2022/05/09 01:38:51;;;;;;;5.27;3.47;;;;;;;10.11;71.13;97608.84;5090849;28;20212;-88
2022/05/09 01:41:18;;;;;;;5.20;2.97;;;;;;;10.24;70.97;97610.09;5075217;28;20676;-86
2022/05/09 01:43:49;;;;;;;9.77;3.63;;;;;;;10.24;70.34;97568.69;5094828;28;20196;-88
2022/05/09 01:46:19;;;;;;;8.13;3.40;;;;;;;10.42;69.39;97578.38;5098211;28;20192;-86
2022/05/09 01:51:41;;;;;;;6.77;3.43;;;;;;;10.79;68.89;97607.19;5099753;28;20199;-85
2022/05/09 01:54:09;;;;;;;4.73;3.07;;;;;;;10.72;69.05;97608.31;5096552;28;20226;-85
2022/05/09 01:56:40;;;;;;;5.00;3.47;;;;;;;10.03;71.19;97574.59;5077336;28;20188;-84
2022/05/09 01:59:10;;;;;;;5.53;3.07;;;;;;;9.64;73.85;97581.97;5092908;28;20208;-85
2022/05/09 02:01:44;;;;;;;4.33;3.00;;;;;;;9.56;74.22;97604.66;5094683;28;20185;-86
2022/05/09 02:04:14;;;;;;;10.33;3.80;;;;;;;9.27;74.85;97572.00;5091234;28;20576;-86
2022/05/09 02:06:41;;;;;;;6.00;3.17;;;;;;;9.34;75.71;97598.47;5092100;28;20192;-88
2022/05/09 02:09:09;;;;;;;5.13;3.43;;;;;;;9.23;75.87;97585.91;5092086;28;20184;-89
2022/05/09 02:11:36;;;;;;;6.73;3.63;;;;;;;9.22;76.78;97594.53;5073223;28;20189;-84
2022/05/09 02:14:07;;;;;;;5.33;3.53;;;;;;;9.27;77.22;97605.59;5090635;28;20285;-86
2022/05/09 02:16:36;;;;;;;5.13;3.40;;;;;;;9.30;77.20;97609.78;5089484;28;20213;-85
2022/05/09 02:19:05;;;;;;;6.43;3.50;;;;;;;9.30;77.73;97608.06;5090926;28;20221;-89
2022/05/09 02:21:33;;;;;;;4.63;3.63;;;;;;;9.16;79.56;97610.25;5070952;28;20193;-87
2022/05/09 02:24:02;;;;;;;5.27;3.03;;;;;;;9.04;78.22;97600.28;5072184;28;20192;-85
2022/05/09 02:26:34;;;;;;;5.47;3.53;;;;;;;9.12;77.69;97608.66;5089894;28;20195;-87
2022/05/09 02:29:01;;;;;;;6.97;3.23;;;;;;;8.94;77.59;97604.06;5090269;28;20193;-88
2022/05/09 02:31:30;;;;;;;4.20;3.43;;;;;;;8.55;78.09;97563.94;5090575;28;20321;-86
2022/05/09 02:34:01;;;;;;;5.50;3.37;;;;;;;8.64;78.32;97579.13;5071128;28;20238;-85
2022/05/09 02:36:29;;;;;;;6.50;4.20;;;;;;;8.79;78.43;97586.41;5090143;28;20782;-86
2022/05/09 02:38:56;;;;;;;5.67;4.00;;;;;;;9.02;78.26;97617.56;5070824;28;20181;-88
2022/05/09 02:41:24;;;;;;;7.13;3.87;;;;;;;9.08;76.78;97609.63;5089498;28;20748;-85
2022/05/09 02:43:51;;;;;;;5.83;3.80;;;;;;;9.01;77.81;97618.44;5088927;28;20189;-86
2022/05/09 02:46:19;;;;;;;7.37;4.30;;;;;;;9.06;77.88;97614.00;5089079;28;20204;-86
2022/05/09 02:48:47;;;;;;;5.20;4.13;;;;;;;9.09;77.56;97619.06;5089903;28;20226;-89
2022/05/09 02:51:14;;;;;;;6.60;4.00;;;;;;;8.98;77.30;97608.22;5088933;28;20668;-85
2022/05/09 02:53:48;;;;;;;4.93;3.50;;;;;;;9.06;76.09;97588.16;5094524;28;20204;-86
2022/05/09 02:56:16;;;;;;;6.07;3.77;;;;;;;9.48;75.58;97622.97;5070478;28;20181;-91
2022/05/09 02:58:43;;;;;;;6.83;4.03;;;;;;;9.64;74.42;97597.50;5073068;28;20698;-85
2022/05/09 03:01:12;;;;;;;5.53;3.37;;;;;;;9.81;72.99;97595.16;5076117;28;20192;-88
2022/05/09 03:06:24;;;;;;;5.80;3.13;;;;;;;9.32;73.21;97595.94;5104424;28;20197;-88
2022/05/09 03:08:54;;;;;;;6.87;3.80;;;;;;;9.32;73.86;97632.13;5087978;28;20203;-88
2022/05/09 03:11:23;;;;;;;7.33;3.37;;;;;;;8.94;75.28;97619.56;5101484;28;20181;-87
2022/05/09 03:13:50;;;;;;;6.13;3.40;;;;;;;8.95;75.16;97610.88;5101730;28;20210;-85
2022/05/09 03:16:17;;;;;;;10.73;4.10;;;;;;;9.09;75.09;97607.91;5081891;28;20684;-89
2022/05/09 03:18:45;;;;;;;5.53;3.30;;;;;;;9.45;74.21;97617.06;5082344;28;20231;-85
2022/05/09 03:21:12;;;;;;;6.03;3.80;;;;;;;9.58;73.22;97615.78;5105062;28;20185;-88
2022/05/09 03:23:39;;;;;;;5.37;3.37;;;;;;;9.45;73.02;97604.16;5065132;28;20680;-85
2022/05/09 03:26:06;;;;;;;5.10;3.60;;;;;;;9.23;74.03;97621.25;5066275;28;20242;-88
2022/05/09 03:28:34;;;;;;;4.87;3.00;;;;;;;8.90;76.24;97634.28;5085670;28;20271;-86
2022/05/09 03:31:01;;;;;;;4.43;3.50;;;;;;;9.01;76.66;97646.88;5089161;28;20204;-86
2022/05/09 03:33:28;;;;;;;6.93;3.83;;;;;;;8.88;76.04;97615.38;5106206;28;20188;-90
2022/05/09 03:36:01;;;;;;;5.57;3.63;;;;;;;8.94;76.75;97632.47;5096506;28;20218;-87
2022/05/09 03:38:29;;;;;;;8.27;4.73;;;;;;;8.53;77.30;97588.94;5055946;28;20184;-91
2022/05/09 03:40:56;;;;;;;5.93;4.43;;;;;;;8.84;77.09;97641.38;5089860;28;20591;-91
2022/05/09 03:43:24;;;;;;;6.03;4.50;;;;;;;8.90;76.88;97636.03;5089352;28;20200;-92
2022/05/09 03:45:52;;;;;;;7.27;3.63;;;;;;;8.94;77.09;97645.38;5073114;28;20196;-92
2022/05/09 03:48:19;;;;;;;7.47;4.60;;;;;;;8.94;76.07;97633.28;5102338;28;20200;-93
2022/05/09 03:50:47;;;;;;;7.87;4.07;;;;;;;8.88;76.13;97610.22;5102100;28;20192;-84
2022/05/09 03:53:16;;;;;;;6.53;4.03;;;;;;;9.41;74.42;97639.59;5114583;28;20202;-88
2022/05/09 03:55:43;;;;;;;6.80;4.63;;;;;;;9.26;74.45;97634.03;5091072;28;20200;-94
2022/05/09 03:58:11;;;;;;;7.37;4.30;;;;;;;9.26;75.55;97647.81;5093042;28;20612;-93
2022/05/09 04:00:40;;;;;;;5.00;3.83;;;;;;;9.16;74.75;97625.75;5085077;28;20211;-95
2022/05/09 04:03:08;;;;;;;7.43;3.63;;;;;;;9.71;73.91;97653.28;5112506;28;20263;-92
2022/05/09 04:05:36;;;;;;;5.83;4.07;;;;;;;9.82;73.44;97643.44;5109029;28;20200;-87
2022/05/09 04:08:08;;;;;;;6.07;3.90;;;;;;;9.71;74.47;97658.44;5075941;28;20185;-89
2022/05/09 04:10:37;;;;;;;4.83;3.80;;;;;;;10.09;73.16;97654.59;5094782;28;20192;-86
2022/05/09 04:13:04;;;;;;;8.33;4.60;;;;;;;9.56;73.08;97571.06;5105968;28;20581;-86
2022/05/09 04:18:25;;;;;;;9.27;4.57;;;;;;;9.77;73.59;97646.16;5109354;28;20197;-84
2022/05/09 04:20:52;;;;;;;7.40;4.37;;;;;;;10.13;73.27;97663.97;5110104;28;20224;-84
2022/05/09 04:23:19;;;;;;;5.87;3.97;;;;;;;10.51;71.92;97666.06;5101294;28;20233;-90
2022/05/09 04:25:48;;;;;;;6.83;3.57;;;;;;;10.37;72.07;97665.72;5103881;28;20188;-83
2022/05/09 04:28:22;;;;;;;8.67;4.37;;;;;;;10.60;71.53;97656.25;5133497;28;20183;-84
2022/05/09 04:30:52;;;;;;;5.50;3.37;;;;;;;10.51;71.66;97653.97;5114754;28;20217;-85
2022/05/09 04:33:20;;;;;;;5.93;3.87;;;;;;;10.70;70.89;97666.25;5135734;27;20174;-84
2022/05/09 04:35:48;;;;;;;7.90;3.97;;;;;;;10.59;71.78;97654.53;5132944;28;20218;-85
2022/05/09 04:38:22;;;;;;;7.73;3.77;;;;;;;10.76;70.51;97663.47;5105738;28;20184;-83
2022/05/09 04:40:58;;;;;;;4.97;3.30;;;;;;;11.00;70.87;97659.97;5109834;27;20164;-85
2022/05/09 04:43:30;;;;;;;4.03;3.63;;;;;;;11.02;70.87;97665.94;5123871;28;20200;-84
2022/05/09 04:46:00;;;;;;;6.80;4.33;;;;;;;10.94;70.69;97653.25;5127519;28;20184;-84
2022/05/09 04:48:40;;;;;;;8.83;4.43;;;;;;;10.62;70.68;97591.44;5108766;28;20219;-84
2022/05/09 04:51:15;;;;;;;6.43;3.40;;;;;;;11.03;71.04;97660.69;5107496;28;20289;-83
2022/05/09 04:53:50;;;;;;;8.90;3.93;;;;;;;10.58;71.24;97571.72;5087223;28;20673;-86
2022/05/09 04:56:23;;;;;;;6.07;3.60;;;;;;;11.11;70.56;97666.41;5106911;28;20340;-82
2022/05/09 04:58:54;;;;;;;4.20;3.43;;;;;;;11.19;70.75;97661.78;5102549;28;20267;-83
2022/05/09 05:01:25;;;;;;;5.53;3.13;;;;;;;11.15;70.23;97617.88;5124247;28;20193;-84
2022/05/09 05:03:54;;;;;;;6.17;4.03;;;;;;;12.07;68.75;97656.53;5112820;28;20203;-85
2022/05/09 05:06:21;;;;;;;4.50;3.27;;;;;;;12.33;66.25;97637.25;5129223;28;20188;-84
2022/05/09 05:08:54;;;;;;;6.53;3.73;;;;;;;12.69;65.23;97665.97;5125734;28;20191;-85
2022/05/09 05:11:21;;;;;;;7.07;3.57;;;;;;;13.03;64.18;97672.19;5137004;28;20221;-85
2022/05/09 05:13:48;;;;;;;7.90;5.17;;;;;;;12.79;64.22;97660.31;5138026;28;20185;-86
2022/05/09 05:16:59;;;;;;;5.20;4.00;;;;;;;12.49;64.85;97638.25;5120596;27;20228;-83
2022/05/09 05:19:33;;;;;;;4.43;3.57;;;;;;;12.59;64.87;97651.72;5138097;28;20209;-84
2022/05/09 05:22:47;;;;;;;7.17;4.53;;;;;;;13.08;63.36;97678.03;5136339;28;20201;-84
2022/05/09 05:25:26;;;;;;;8.83;4.20;;;;;;;13.29;63.32;97675.41;5136623;28;20198;-85
2022/05/09 05:27:53;;;;;;;8.17;4.63;;;;;;;13.36;62.58;97641.22;5118562;28;20260;-84
2022/05/09 05:30:21;;;;;;;5.13;4.30;;;;;;;13.64;62.68;97678.00;5117981;28;20184;-83
2022/05/09 05:32:52;;;;;;;7.97;4.60;;;;;;;13.57;62.70;97654.97;5129192;28;20217;-84
2022/05/09 05:35:26;;;;;;;10.23;5.83;;;;;;;14.02;61.91;97670.94;5073908;28;20781;-84
2022/05/09 05:37:55;;;;;;;8.33;6.10;;;;;;;14.30;59.89;97657.44;5104637;28;20670;-84
2022/05/09 05:40:23;;;;;;;9.23;4.30;;;;;;;14.73;59.22;97662.13;5087824;28;20196;-84
2022/05/09 05:42:53;;;;;;;9.07;5.63;;;;;;;14.85;59.50;97664.09;5105787;28;20264;-86
2022/05/09 05:45:23;;;;;;;10.77;4.67;;;;;;;14.97;57.36;97666.03;5084519;28;20209;-84
2022/05/09 05:47:51;;;;;;;7.97;5.10;;;;;;;15.07;56.94;97672.44;5115319;28;20196;-83
2022/05/09 05:50:23;;;;;;;7.73;3.80;;;;;;;15.34;56.01;97678.81;5097267;28;20196;-83
2022/05/09 05:52:55;;;;;;;6.00;3.73;;;;;;;15.32;55.66;97651.09;5110801;28;20184;-83
2022/05/09 05:55:22;;;;;;;6.17;3.93;;;;;;;15.68;55.78;97671.75;5101606;28;20227;-84
2022/05/09 05:57:49;;;;;;;25.13;9.97;;;;;;;15.78;55.00;97645.03;5099988;28;20563;-84
2022/05/09 06:00:23;;;;;;;6.20;4.00;;;;;;;15.13;55.09;97629.53;5120161;28;20191;-84
2022/05/09 06:02:53;;;;;;;8.13;3.87;;;;;;;15.02;55.97;97678.84;5120409;28;20268;-84
2022/05/09 06:05:22;;;;;;;7.00;4.03;;;;;;;15.01;56.27;97670.19;5121406;28;20257;-86
2022/05/09 06:07:55;;;;;;;12.13;6.30;;;;;;;14.93;56.53;97677.56;5119978;28;20199;-84
2022/05/09 06:10:23;;;;;;;12.50;7.33;;;;;;;15.07;55.92;97677.66;5118672;28;20654;-84
2022/05/09 06:12:51;;;;;;;8.43;4.83;;;;;;;14.96;55.78;97635.66;5119457;28;20197;-84
2022/05/09 06:18:16;;;;;;;6.50;4.30;;;;;;;15.35;54.80;97674.44;5114448;28;20241;-83
2022/05/09 06:20:44;;;;;;;12.40;4.23;;;;;;;15.34;55.45;97662.28;5121814;28;20227;-84
2022/05/09 06:23:16;;;;;;;7.70;3.47;;;;;;;15.86;54.63;97673.31;5085252;28;20262;-83
2022/05/09 06:25:46;;;;;;;12.07;5.20;;;;;;;16.15;53.35;97675.97;5120393;28;20200;-85
2022/05/09 06:28:15;;;;;;;6.57;4.20;;;;;;;16.31;53.07;97665.44;5103126;28;20337;-84
2022/05/09 06:30:43;;;;;;;19.07;8.67;;;;;;;16.13;53.36;97664.75;5084783;28;20686;-85
2022/05/09 06:33:12;;;;;;;25.30;11.40;;;;;;;15.89;53.66;97668.75;5103736;28;20199;-85
2022/05/09 06:35:44;;;;;;;13.20;7.60;;;;;;;16.14;53.45;97666.44;5122650;28;20253;-85
2022/05/09 06:38:15;;;;;;;8.93;4.70;;;;;;;16.36;53.38;97666.03;5073348;28;20265;-84
2022/05/09 06:40:44;;;;;;;9.83;4.80;;;;;;;16.64;53.04;97673.09;5123945;28;20189;-84
2022/05/09 06:43:17;;;;;;;11.83;4.80;;;;;;;16.70;52.80;97670.13;5071595;28;20199;-84
2022/05/09 06:45:46;;;;;;;13.20;4.80;;;;;;;16.79;52.31;97662.56;5102372;28;20198;-84
2022/05/09 06:48:16;;;;;;;10.67;5.77;;;;;;;17.04;51.18;97667.16;5086279;28;20284;-85
2022/05/09 06:50:46;;;;;;;21.00;6.37;;;;;;;16.62;52.17;97660.13;5121422;28;20202;-83
2022/05/09 06:56:22;;;;;;;11.73;4.93;;;;;;;16.15;53.85;97664.66;5124669;28;20269;-84
2022/05/09 06:58:49;;;;;;;11.77;4.90;;;;;;;16.09;54.22;97665.03;5124388;28;20181;-84
2022/05/09 07:01:19;;;;;;;7.33;4.43;;;;;;;16.60;53.05;97663.75;5073344;28;20196;-84
2022/05/09 07:03:47;;;;;;;11.43;5.97;;;;;;;16.98;52.46;97670.16;5121890;28;20246;-84
2022/05/09 07:06:16;;;;;;;12.13;6.63;;;;;;;17.07;52.81;97672.19;5087543;28;20257;-83
2022/05/09 07:08:45;;;;;;;8.77;5.47;;;;;;;16.87;51.57;97626.31;5123229;28;20178;-83
2022/05/09 07:11:12;;;;;;;10.00;5.40;;;;;;;17.01;52.13;97654.25;5104754;28;20212;-84
2022/05/09 07:13:52;;;;;;;7.73;4.93;;;;;;;16.72;53.07;97682.19;5090297;28;20192;-83
2022/05/09 07:16:19;;;;;;;13.47;5.70;;;;;;;16.39;53.72;97667.59;5122998;28;20222;-84
2022/05/09 07:18:48;;;;;;;11.03;5.13;;;;;;;16.06;52.98;97658.19;5104887;28;20183;-83
2022/05/09 07:21:30;;;;;;;9.27;6.50;;;;;;;15.47;54.77;97626.81;5104294;28;20181;-85
2022/05/09 07:24:01;;;;;;;8.80;4.97;;;;;;;15.53;55.70;97665.63;5085934;28;20200;-84
2022/05/09 07:26:36;;;;;;;7.80;5.17;;;;;;;15.73;55.52;97648.81;5120367;28;20969;-84
2022/05/09 07:29:09;;;;;;;6.80;4.50;;;;;;;16.21;54.00;97654.69;5119615;28;20272;-84
2022/05/09 07:31:36;;;;;;;12.40;6.03;;;;;;;16.19;53.41;97653.09;5124034;28;20195;-84
2022/05/09 07:34:05;;;;;;;9.63;4.77;;;;;;;15.87;54.06;97638.41;5121335;28;20188;-83
2022/05/09 07:36:33;;;;;;;9.50;5.20;;;;;;;16.19;54.02;97658.34;5120603;28;20277;-84
2022/05/09 07:39:04;;;;;;;5.90;4.40;;;;;;;16.30;53.38;97659.38;5115345;28;20733;-84
2022/05/09 07:41:34;;;;;;;8.27;5.13;;;;;;;16.32;53.33;97654.06;5116057;28;20204;-84
2022/05/09 07:44:05;;;;;;;9.77;5.03;;;;;;;16.28;53.25;97642.94;5117994;28;20261;-84
2022/05/09 07:46:41;;;;;;;9.43;5.30;;;;;;;16.43;52.17;97646.44;5105398;28;20199;-83
2022/05/09 07:49:12;;;;;;;9.60;4.63;;;;;;;16.89;51.64;97665.47;5098254;28;20189;-85
2022/05/09 07:51:40;;;;;;;8.73;4.60;;;;;;;17.34;51.05;97654.75;5127299;28;20594;-88
2022/05/09 07:54:14;;;;;;;9.13;4.27;;;;;;;17.75;49.93;97644.28;5127578;28;20208;-94
2022/05/09 07:56:43;;;;;;;11.83;4.87;;;;;;;17.59;50.43;97668.03;5129363;28;20247;-88
2022/05/09 07:59:14;;;;;;;13.53;4.57;;;;;;;17.54;49.73;97662.22;5113954;28;20212;-86
2022/05/09 08:01:44;;;;;;;10.50;4.17;;;;;;;17.21;51.06;97664.31;5132934;28;20186;-93
2022/05/09 08:07:22;;;;;;;8.07;4.60;;;;;;;17.43;50.20;97658.59;5115245;28;20209;-85
2022/05/09 08:09:59;;;;;;;6.63;4.63;;;;;;;17.33;51.62;97660.94;5116269;28;20197;-86
2022/05/09 08:12:43;;;;;;;8.03;4.37;;;;;;;17.42;51.22;97667.38;5114921;28;20181;-88
2022/05/09 08:15:21;;;;;;;5.13;4.07;;;;;;;17.30;51.14;97657.66;5134137;28;20202;-93
2022/05/09 08:17:50;;;;;;;8.03;4.97;;;;;;;17.40;50.56;97641.28;5100653;28;20249;-94
2022/05/09 08:20:21;;;;;;;6.53;4.23;;;;;;;17.76;50.45;97667.78;5112178;28;20259;-88
2022/05/09 08:22:59;;;;;;;9.43;4.80;;;;;;;17.77;50.43;97647.66;5112689;28;20222;-89
2022/05/09 08:25:28;;;;;;;9.17;5.70;;;;;;;18.04;50.10;97664.22;5114175;28;20184;-88
2022/05/09 08:27:56;;;;;;;8.03;4.50;;;;;;;18.31;49.96;97658.91;5113726;28;20210;-85
2022/05/09 08:30:26;;;;;;;9.80;4.97;;;;;;;18.50;49.68;97639.28;5113376;28;20171;-88
2022/05/09 08:32:55;;;;;;;7.40;4.83;;;;;;;18.72;48.62;97622.88;5079398;28;20205;-93
2022/05/09 08:35:26;;;;;;;7.83;4.77;;;;;;;18.91;48.12;97644.31;5110775;28;20198;-86
2022/05/09 08:37:55;;;;;;;7.20;3.00;;;;;;;18.06;49.94;97651.00;5108900;28;20208;-91
2022/05/09 08:41:12;;;;;;;11.93;6.37;;;;;;;18.13;50.70;97665.41;5103909;28;20287;-93
2022/05/09 08:43:51;;;;;;;6.37;2.77;;;;;;;18.33;50.35;97662.28;5002543;28;20210;-94
2022/05/09 08:47:06;;;;;;;10.00;5.07;;;;;;;18.25;49.76;97643.59;5102713;28;20206;-92
2022/05/09 08:49:39;;;;;;;5.53;3.30;;;;;;;18.63;49.30;97655.00;5050237;28;20264;-88
2022/05/09 08:52:41;;;;;;;4.20;2.97;;;;;;;18.43;49.66;97653.72;5111357;28;20188;-85
2022/05/09 08:55:10;;;;;;;4.70;2.80;;;;;;;18.48;49.16;97645.56;5099853;28;20204;-85
2022/05/09 08:57:49;;;;;;;5.67;3.43;;;;;;;18.68;48.75;97642.41;5116263;28;20197;-86
2022/05/09 09:00:21;;;;;;;7.87;3.70;;;;;;;18.63;48.29;97642.72;5117330;28;20188;-85
2022/05/09 09:03:28;;;;;;;4.73;2.30;;;;;;;18.79;48.07;97652.19;5114885;28;20184;-84
2022/05/09 09:06:05;;;;;;;3.83;2.90;;;;;;;18.83;47.86;97654.50;5112405;28;20187;-88
2022/05/09 09:08:42;;;;;;;5.97;2.90;;;;;;;18.56;47.18;97632.75;5115406;28;20188;-86
2022/05/09 09:11:28;;;;;;;5.40;2.60;;;;;;;18.85;48.08;97613.22;5116968;28;20187;-84
2022/05/09 09:14:24;;;;;;;5.23;3.50;;;;;;;18.90;48.38;97626.84;5105188;28;20196;-86
2022/05/09 09:17:03;;;;;;;6.63;2.70;;;;;;;18.90;48.26;97642.59;5116214;28;20208;-87
2022/05/09 09:20:15;;;;;;;6.90;3.80;;;;;;;19.28;47.95;97648.66;5108327;28;20548;-85
2022/05/09 09:22:52;;;;;;;12.00;6.50;;;;;;;19.85;46.68;97653.31;5092446;28;20201;-85
2022/05/09 09:25:50;;;;;;;4.83;2.83;;;;;;;19.47;46.39;97654.28;5110490;28;20184;-86
2022/05/09 09:28:27;;;;;;;5.93;4.20;;;;;;;18.89;47.41;97603.34;5113862;28;20189;-85
2022/05/09 09:30:57;;;;;;;4.90;2.60;;;;;;;19.33;47.74;97646.56;5099952;28;20527;-86
2022/05/09 09:33:44;;;;;;;6.43;2.90;;;;;;;19.57;46.30;97636.09;5104379;28;20207;-87
2022/05/09 09:36:22;;;;;;;9.07;5.77;;;;;;;20.00;44.84;97645.16;5105739;28;20247;-85
2022/05/09 09:39:09;;;;;;;6.83;2.20;;;;;;;20.19;44.03;97616.56;5108013;28;20210;-85
2022/05/09 09:41:37;;;;;;;4.63;2.47;;;;;;;19.69;45.31;97608.06;5110898;28;20257;-84
2022/05/09 09:44:38;;;;;;;4.00;2.87;;;;;;;20.05;45.16;97644.81;5107968;28;20686;-85
2022/05/09 09:48:21;;;;;;;5.60;2.17;;;;;;;19.94;46.45;97647.41;5105982;28;20185;-86
2022/05/09 09:51:03;;;;;;;5.83;2.40;;;;;;;19.56;45.90;97583.66;5111152;28;20193;-84
2022/05/09 09:53:41;;;;;;;5.23;2.77;;;;;;;20.06;44.88;97628.06;5108673;28;20236;-85
2022/05/09 09:56:28;;;;;;;2.73;2.30;;;;;;;20.18;44.54;97625.38;5103166;28;20216;-86
2022/05/09 09:59:18;;;;;;;4.33;2.60;;;;;;;20.13;44.47;97579.34;5108389;28;20184;-85
2022/05/09 10:02:20;;;;;;;3.00;2.10;;;;;;;20.06;45.05;97623.66;5108003;28;20199;-84
2022/05/09 10:05:08;;;;;;;4.37;2.30;;;;;;;19.98;45.50;97612.88;5102978;28;20533;-85
2022/05/09 10:07:43;;;;;;;4.17;2.50;;;;;;;20.27;45.01;97623.88;5088317;28;20283;-85
2022/05/09 10:10:15;;;;;;;5.47;2.50;;;;;;;20.34;43.62;97630.34;5105267;28;20188;-84
2022/05/09 10:12:50;;;;;;;4.70;2.10;;;;;;;19.79;44.70;97617.81;5102348;28;20189;-85
2022/05/09 10:15:42;;;;;;;11.23;6.83;;;;;;;19.93;45.01;97635.19;5090811;28;20638;-84
2022/05/09 10:18:18;;;;;;;3.60;2.70;;;;;;;20.05;43.99;97613.28;5102919;28;20205;-85
2022/05/09 10:27:24;;;;;;;4.03;2.90;;;;;;;20.91;42.76;97623.28;5111025;28;20216;-86
2022/05/09 10:30:01;;;;;;;4.97;2.60;;;;;;;20.72;43.60;97609.84;5106651;28;20208;-85
2022/05/09 10:32:59;;;;;;;6.10;2.50;;;;;;;20.76;43.36;97606.03;5088584;28;20196;-84
2022/05/09 10:35:41;;;;;;;2.73;2.30;;;;;;;20.82;44.92;97584.47;5106649;28;20655;-86
2022/05/09 10:38:17;;;;;;;5.27;2.43;;;;;;;20.21;46.11;97614.66;5107091;28;20204;-85
2022/05/09 10:40:51;;;;;;;4.13;2.53;;;;;;;20.62;44.87;97595.72;5108316;28;20227;-86
2022/05/09 10:43:34;;;;;;;2.97;2.30;;;;;;;21.23;43.48;97610.22;5097026;28;20253;-86
2022/05/09 10:46:11;;;;;;;2.83;2.27;;;;;;;21.04;42.83;97567.88;5112268;28;20186;-86
2022/05/09 10:49:26;;;;;;;3.60;2.03;;;;;;;21.39;42.42;97604.59;5127511;28;20262;-85
2022/05/09 10:52:09;;;;;;;7.77;2.70;;;;;;;21.80;41.56;97596.81;5018946;28;20215;-86
2022/05/09 10:55:03;;;;;;;3.33;2.20;;;;;;;21.63;42.04;97571.81;4988616;28;20201;-84
2022/05/09 10:57:47;;;;;;;4.93;2.53;;;;;;;21.81;41.54;97559.78;5099719;28;20226;-85
2022/05/09 11:00:22;;;;;;;4.03;2.30;;;;;;;21.99;42.17;97596.16;5127738;28;20205;-85
2022/05/09 11:02:58;;;;;;;7.70;2.60;;;;;;;22.17;41.11;97592.00;5110057;28;20537;-85
2022/05/09 11:05:46;;;;;;;4.13;2.00;;;;;;;21.54;40.99;97569.06;5114150;28;20212;-86
2022/05/09 11:08:58;;;;;;;3.23;1.97;;;;;;;21.63;40.81;97602.59;5133406;28;20200;-84
2022/05/09 11:11:49;;;;;;;5.17;2.33;;;;;;;21.45;41.85;97588.28;5091539;28;20191;-85
2022/05/09 11:15:11;;;;;;;2.97;2.40;;;;;;;22.01;39.63;97555.47;5063618;28;20671;-84
2022/05/09 11:18:33;;;;;;;3.73;2.10;;;;;;;22.41;38.72;97582.84;5056433;28;20732;-84
2022/05/09 11:22:10;;;;;;;5.53;2.33;;;;;;;22.38;37.71;97585.72;4991877;28;21072;-85
2022/05/09 11:24:59;;;;;;;4.97;2.47;;;;;;;22.71;37.30;97586.53;4910114;29;20231;-85
2022/05/09 11:28:02;;;;;;;4.10;2.57;;;;;;;22.95;36.92;97594.97;4910125;29;20213;-87
2022/05/09 11:30:47;;;;;;;4.90;2.00;;;;;;;23.02;35.75;97548.56;4924680;29;20242;-86
2022/05/09 11:33:45;;;;;;;4.53;2.33;;;;;;;23.01;36.68;97589.16;4977044;28;20251;-84
2022/05/09 11:36:36;;;;;;;2.97;2.17;;;;;;;22.59;37.58;97572.53;5023176;28;20239;-84
2022/05/09 11:39:16;;;;;;;3.13;2.03;;;;;;;22.37;38.37;97592.00;5062682;28;20192;-85
2022/05/09 11:43:27;;;;;;;7.03;2.50;;;;;;;22.64;38.29;97576.47;5068686;28;20633;-82
2022/05/09 11:45:11;;;;;;;7.17;2.00;;;;;;;22.76;37.10;97539.41;5118304;28;20684;-84
2022/05/09 11:47:50;;;;;;;6.40;3.13;;;;;;;23.04;36.83;97567.75;5083940;28;20199;-84
2022/05/09 11:50:33;;;;;;;5.23;2.30;;;;;;;23.11;37.30;97568.88;5119344;28;20191;-86
2022/05/09 11:53:08;;;;;;;5.87;2.10;;;;;;;22.76;38.02;97579.03;5125896;28;20216;-85
2022/05/09 11:55:37;;;;;;;6.43;2.10;;;;;;;22.37;37.93;97538.34;5110630;28;20202;-86
2022/05/09 11:58:05;;;;;;;7.50;2.20;;;;;;;22.12;38.20;97549.31;5091166;28;20261;-85
2022/05/09 12:00:38;;;;;;;6.40;2.40;;;;;;;21.86;38.25;97575.22;5125723;28;20197;-87
2022/05/09 12:03:34;;;;;;;3.23;1.97;;;;;;;21.78;38.64;97560.00;5102919;28;20310;-85
2022/05/09 12:06:04;;;;;;;5.07;1.70;;;;;;;22.03;37.99;97568.56;5123536;28;20626;-86
2022/05/09 12:08:47;;;;;;;2.17;1.93;;;;;;;22.20;38.67;97567.97;5126804;28;20259;-86
2022/05/09 12:11:21;;;;;;;4.33;2.00;;;;;;;22.32;38.36;97565.13;5126738;28;20194;-86
2022/05/09 12:13:52;;;;;;;3.73;2.07;;;;;;;22.29;37.80;97544.31;5110871;28;20232;-86
2022/05/09 12:16:35;;;;;;;4.13;1.93;;;;;;;22.34;37.61;97568.47;5110230;28;20286;-87
2022/05/09 12:19:05;;;;;;;2.83;1.83;;;;;;;21.88;38.62;97561.91;5130492;28;20200;-87
2022/05/09 12:21:41;;;;;;;2.70;1.97;;;;;;;21.76;39.80;97558.47;5135534;28;20188;-86
2022/05/09 12:24:16;;;;;;;2.60;2.00;;;;;;;22.05;39.68;97554.25;5103449;28;20194;-87
2022/05/09 12:26:48;;;;;;;2.20;2.00;;;;;;;21.86;40.14;97528.56;5120155;28;20190;-88
2022/05/09 12:29:16;;;;;;;7.80;2.00;;;;;;;21.91;39.85;97565.13;5120063;28;20202;-89
2022/05/09 12:32:13;;;;;;;4.73;2.00;;;;;;;21.73;40.36;97561.34;5135224;28;20273;-86
2022/05/09 12:34:44;;;;;;;2.77;1.73;;;;;;;21.12;41.05;97527.75;5132575;28;20219;-85
2022/05/09 12:37:46;;;;;;;10.43;2.10;;;;;;;21.40;41.16;97500.84;5118388;28;20276;-85